Latest Weather Observations for King Island Airport

IDT60801

Issued at 12:31 pm EST Monday 6 July 2015 (issued every 30 minutes, with the page automatically refreshed every 10 minutes)

About weather observations | Map of weather stations | Latest weather observations for TAS | Other Formats
Station Details ID: 098017 Name: KING ISLAND AIRPORT Lat: -39.88 Lon: 143.88 Height: 37.0 m
Data from the previous 72 hours. | See also: Recent months at King Island Airport
Date/Time
EST
Temp
°C
App
Temp
°C
Dew
Point
Rel
Hum
%
Delta-T
°C
Wind Press
QNH
hPa
Press
MSL
hPa
Rain
since 9 am
mm
Dir
 
Spd
km/h
Gust
km/h
Spd
kts
Gust
kts
06/12:30pm 12.2 9.1 10.4 89 0.9 NNW 17 22 9 12 1013.5 1013.5 2.4
06/12:00pm 12.2 9.6 10.6 90 0.8 NNW 15 20 8 11 1013.8 1013.8 2.4
06/11:30am 12.0 8.9 10.4 90 0.8 NNW 17 20 9 11 1014.1 1014.1 2.0
06/11:00am 12.0 9.7 10.6 91 0.7 NW 13 17 7 9 1014.1 1014.1 1.8
06/10:30am 12.2 9.7 10.9 92 0.7 NW 15 19 8 10 1014.0 1014.0 1.2
06/10:00am 11.6 10.5 10.7 94 0.5 W 7 17 4 9 1013.8 1013.8 1.2
06/09:30am 11.5 9.3 10.7 95 0.4 NW 13 17 7 9 1013.7 1013.7 1.0
06/09:00am 11.7 9.1 10.6 93 0.6 NW 15 19 8 10 1013.4 1013.4 12.6
06/08:30am 11.6 8.2 10.5 93 0.6 NW 19 24 10 13 1013.4 1013.4 12.0
06/08:00am 11.5 7.9 10.4 93 0.6 NW 20 26 11 14 1013.2 1013.2 12.0
06/07:30am 11.5 8.1 10.4 93 0.6 WNW 19 26 10 14 1012.9 1012.9 12.0
06/07:00am 11.7 8.4 10.8 94 0.5 WNW 19 26 10 14 1012.9 1012.9 12.0
06/06:30am 11.4 8.4 10.6 95 0.4 WNW 17 22 9 12 1012.8 1012.8 12.0
06/06:00am 10.9 8.5 10.1 95 0.4 WNW 13 19 7 10 1012.7 1012.7 12.0
06/05:30am 10.8 6.7 10.2 96 0.3 WNW 22 32 12 17 1012.8 1012.8 12.0
06/05:06am 10.5 8.8 9.7 95 0.4 WNW 9 11 5 6 1012.5 1012.5 11.8
06/05:00am 10.6 9.3 9.8 95 0.4 NW 7 9 4 5 1012.5 1012.5 11.6
06/04:30am 10.9 8.9 10.1 95 0.4 WSW 11 13 6 7 1012.4 1012.4 8.4
06/04:00am 11.4 8.0 10.5 94 0.5 NW 19 24 10 13 1012.8 1012.8 5.8
06/03:57am 11.4 7.8 10.5 94 0.5 NW 20 28 11 15 1012.8 1012.8 5.6
06/03:30am 11.4 7.0 10.5 94 0.5 WNW 24 32 13 17 1012.9 1012.9 5.2
06/03:00am 12.0 6.2 10.9 93 0.6 NW 32 41 17 22 1012.9 1012.9 3.6
06/02:30am 12.2 7.6 10.9 92 0.7 NW 26 30 14 16 1013.1 1013.1 2.2
06/02:21am 12.3 7.2 10.7 90 0.8 NW 28 35 15 19 1013.0 1013.0 2.0
06/02:08am 12.6 7.2 10.8 89 0.9 NW 30 37 16 20 1013.0 1013.0 2.0
06/02:00am 12.6 6.6 10.8 89 0.9 NNW 33 39 18 21 1012.9 1012.9 2.0
06/01:30am 12.4 7.0 10.8 90 0.8 NNW 30 35 16 19 1012.9 1012.9 2.0
06/01:08am 12.0 6.6 10.9 93 0.6 NW 30 37 16 20 1013.1 1013.1 2.0
06/01:00am 12.0 6.6 10.9 93 0.6 NW 30 33 16 18 1013.2 1013.2 2.0
06/12:30am 12.2 5.4 10.6 90 0.8 NW 37 46 20 25 1013.7 1013.7 1.8
06/12:25am 12.2 5.3 10.4 89 0.9 NW 37 46 20 25 1013.7 1013.7 1.8
06/12:00am 12.7 5.9 10.6 87 1.1 NW 37 50 20 27 1013.8 1013.8 1.8
 
Date/Time
EST
Temp
°C
App
Temp
°C
Dew
Point
Rel
Hum
%
Delta-T
°C
Wind Press
QNH
hPa
Press
MSL
hPa
Rain
since 9 am
mm
Dir
 
Spd
km/h
Gust
km/h
Spd
kts
Gust
kts
05/11:30pm 12.9 6.3 9.9 82 1.5 NW 35 46 19 25 1013.7 1013.7 1.8
05/11:00pm 13.3 6.8 10.3 82 1.6 NW 35 44 19 24 1013.7 1013.7 1.8
05/10:30pm 13.3 7.4 10.5 83 1.5 NW 32 41 17 22 1013.8 1013.8 1.8
05/10:00pm 13.2 7.4 10.9 86 1.2 NW 32 37 17 20 1013.9 1013.9 1.8
05/09:30pm 13.5 7.7 10.7 83 1.5 NW 32 39 17 21 1014.0 1014.0 1.6
05/09:00pm 13.3 7.5 10.8 85 1.3 NW 32 39 17 21 1014.2 1014.2 1.6
05/08:30pm 13.2 7.4 10.7 85 1.3 NW 32 39 17 21 1014.1 1014.1 1.6
05/08:00pm 13.1 7.0 10.5 84 1.4 NW 33 43 18 23 1014.2 1014.2 1.6
05/07:30pm 13.0 6.5 10.5 85 1.3 NW 35 50 19 27 1014.3 1014.3 1.6
05/07:00pm 12.8 6.8 10.7 87 1.1 NW 33 46 18 25 1014.3 1014.3 1.6
05/06:30pm 13.1 7.2 10.6 85 1.3 NW 32 39 17 21 1014.2 1014.2 1.6
05/06:00pm 12.8 6.9 10.5 86 1.2 NW 32 41 17 22 1014.2 1014.2 1.6
05/05:30pm 13.2 7.1 10.6 84 1.4 NW 33 43 18 23 1014.1 1014.1 1.6
05/05:00pm 12.9 6.9 10.8 87 1.1 NW 33 43 18 23 1014.1 1014.1 1.6
05/04:46pm 12.6 6.2 10.8 89 0.9 NW 35 46 19 25 1014.1 1014.1 1.6
05/04:30pm 12.2 5.3 10.4 89 0.9 NW 37 52 20 28 1014.2 1014.2 1.4
05/04:24pm 12.5 4.4 10.2 86 1.2 NW 43 54 23 29 1014.3 1014.3 0.6
05/04:00pm 12.9 6.0 10.4 85 1.3 NW 37 46 20 25 1014.1 1014.1 0.2
05/03:54pm 12.8 5.9 10.3 85 1.3 NW 37 48 20 26 1014.2 1014.2 0.2
05/03:39pm 12.5 6.0 10.2 86 1.2 NW 35 44 19 24 1014.2 1014.2 0.0
05/03:30pm 13.2 5.8 10.0 81 1.7 NW 39 50 21 27 1014.2 1014.2 0.0
05/03:00pm 13.6 6.7 10.2 80 1.8 NW 37 46 20 25 1014.2 1014.2 0.0
05/02:30pm 13.2 5.8 10.0 81 1.7 NW 39 50 21 27 1014.4 1014.4 0.0
05/02:00pm 13.3 6.0 10.1 81 1.7 NW 39 50 21 27 1014.6 1014.6 0.0
05/01:30pm 13.3 5.6 10.3 82 1.6 NW 41 50 22 27 1014.9 1014.9 0.0
05/01:00pm 13.5 6.9 10.1 80 1.8 NW 35 46 19 25 1015.1 1015.1 0.0
05/12:30pm 13.5 5.7 9.9 79 1.9 NW 41 52 22 28 1015.3 1015.3 0.0
05/12:00pm 13.8 6.2 10.4 80 1.8 NW 41 50 22 27 1015.5 1015.5 0.0
05/11:30am 13.6 6.0 10.4 81 1.7 NW 41 52 22 28 1015.8 1015.8 0.0
05/11:00am 13.5 6.7 10.5 82 1.6 NW 37 48 20 26 1016.2 1016.2 0.0
05/10:30am 13.7 6.5 10.7 82 1.6 NW 39 50 21 27 1016.3 1016.3 0.0
05/10:00am 13.2 6.0 10.4 83 1.5 NW 39 50 21 27 1016.4 1016.4 0.0
05/09:30am 13.0 5.8 10.7 86 1.2 NW 39 52 21 28 1016.4 1016.4 0.0
05/09:00am 13.1 5.6 10.8 86 1.2 NW 41 54 22 29 1016.3 1016.3 6.6
05/08:30am 13.0 5.2 11.1 88 1.0 NW 43 52 23 28 1016.2 1016.2 6.6
05/08:00am 13.0 5.6 11.2 89 0.9 NW 41 54 22 29 1016.0 1016.0 6.4
05/07:30am 12.9 6.0 11.5 91 0.7 NW 39 52 21 28 1016.0 1016.0 6.4
05/07:17am 13.0 6.1 11.6 91 0.7 NW 39 48 21 26 1015.9 1015.9 6.4
05/07:00am 13.0 6.1 11.6 91 0.7 NW 39 54 21 29 1015.9 1015.9 6.4
05/06:30am 13.1 6.2 11.7 91 0.7 NW 39 50 21 27 1015.8 1015.8 6.4
05/06:00am 13.1 6.6 11.8 92 0.7 NW 37 46 20 25 1015.7 1015.7 6.4
05/05:30am 13.0 6.9 11.7 92 0.7 NW 35 48 19 26 1015.7 1015.7 6.4
05/05:00am 13.0 6.9 11.6 91 0.7 NW 35 46 19 25 1015.7 1015.7 6.4
05/04:35am 13.0 7.2 11.4 90 0.8 NW 33 44 18 24 1015.8 1015.8 6.2
05/04:30am 13.2 7.4 11.4 89 1.0 NW 33 43 18 23 1015.8 1015.8 6.2
05/04:00am 13.2 7.0 11.4 89 1.0 NW 35 46 19 25 1016.1 1016.1 6.2
05/03:30am 13.1 6.9 11.3 89 1.0 WNW 35 44 19 24 1016.5 1016.5 6.2
05/03:00am 13.1 7.3 11.5 90 0.8 WNW 33 43 18 23 1016.6 1016.6 6.2
05/02:30am 13.1 6.9 11.5 90 0.9 WNW 35 44 19 24 1016.8 1016.8 6.2
05/02:00am 13.1 6.9 11.5 90 0.8 WNW 35 44 19 24 1016.8 1016.8 6.2
05/01:30am 13.0 6.4 11.4 90 0.8 WNW 37 46 20 25 1016.7 1016.7 6.2
05/01:00am 13.0 6.5 11.6 91 0.7 NW 37 46 20 25 1016.8 1016.8 6.2
05/12:30am 13.0 6.9 11.7 92 0.7 NW 35 46 19 25 1017.1 1017.1 6.2
05/12:00am 13.1 6.6 11.8 92 0.7 NW 37 46 20 25 1017.3 1017.3 6.2
 
Date/Time
EST
Temp
°C
App
Temp
°C
Dew
Point
Rel
Hum
%
Delta-T
°C
Wind Press
QNH
hPa
Press
MSL
hPa
Rain
since 9 am
mm
Dir
 
Spd
km/h
Gust
km/h
Spd
kts
Gust
kts
04/11:51pm 13.1 7.0 11.8 92 0.7 WNW 35 46 19 25 1017.3 1017.3 6.0
04/11:36pm 13.1 7.0 11.8 92 0.7 NW 35 43 19 23 1017.3 1017.3 6.0
04/11:30pm 13.0 6.9 11.7 92 0.7 NW 35 46 19 25 1017.3 1017.3 6.0
04/11:22pm 12.9 6.8 11.6 92 0.7 NW 35 46 19 25 1017.3 1017.3 6.0
04/11:00pm 12.8 7.3 11.7 93 0.6 NW 32 37 17 20 1017.5 1017.5 5.6
04/10:30pm 12.7 7.0 11.8 94 0.5 NW 33 41 18 22 1017.7 1017.7 4.6
04/10:17pm 12.5 6.9 11.4 93 0.6 WNW 32 43 17 23 1017.7 1017.7 4.4
04/10:00pm 12.8 6.6 11.4 91 0.7 NW 35 44 19 24 1017.8 1017.8 3.8
04/09:30pm 13.1 8.2 11.3 89 1.0 WNW 28 39 15 21 1018.0 1018.0 3.8
04/09:00pm 13.2 8.8 11.6 90 0.9 WNW 26 37 14 20 1018.1 1018.1 3.8
04/08:30pm 13.2 8.4 11.6 90 0.9 WNW 28 39 15 21 1018.1 1018.1 3.8
04/08:00pm 13.1 8.3 11.5 90 0.8 WNW 28 33 15 18 1018.2 1018.2 3.8
04/07:30pm 12.7 8.2 11.3 91 0.7 WNW 26 37 14 20 1018.1 1018.1 3.8
04/07:00pm 12.3 8.6 11.4 94 0.5 W 22 35 12 19 1018.2 1018.2 3.8
04/06:31pm 12.2 6.9 11.1 93 0.6 W 30 44 16 24 1018.1 1018.1 3.6
04/06:30pm 12.2 6.9 11.1 93 0.6 W 30 44 16 24 1018.1 1018.1 3.6
04/06:16pm 12.2 7.1 10.6 90 0.8 W 28 37 15 20 1018.0 1018.0 3.2
04/06:00pm 13.0 8.8 11.1 88 1.0 W 24 33 13 18 1017.9 1017.9 2.0
04/05:53pm 12.8 8.5 10.9 88 1.0 W 24 33 13 18 1017.8 1017.8 2.0
04/05:30pm 13.0 8.8 11.1 88 1.0 W 24 30 13 16 1017.6 1017.6 2.0
04/05:00pm 12.9 7.9 11.0 88 1.0 W 28 37 15 20 1017.7 1017.7 2.0
04/04:54pm 13.1 8.2 11.2 88 1.0 W 28 41 15 22 1017.7 1017.7 2.0
04/04:30pm 13.2 8.7 11.4 89 1.0 W 26 39 14 21 1017.7 1017.7 2.0
04/04:14pm 13.2 8.7 11.3 88 1.0 W 26 41 14 22 1017.8 1017.8 2.0
04/04:00pm 13.2 8.3 11.3 88 1.0 W 28 37 15 20 1017.8 1017.8 2.0
04/03:48pm 13.3 7.4 11.2 87 1.1 W 33 44 18 24 1017.7 1017.7 2.0
04/03:30pm 13.4 8.2 11.5 88 1.0 W 30 46 16 25 1017.6 1017.6 2.0
04/03:19pm 13.4 7.8 11.5 88 1.0 W 32 43 17 23 1017.5 1017.5 2.0
04/03:12pm 13.6 8.1 11.8 89 1.0 W 32 48 17 26 1017.5 1017.5 2.0
04/03:00pm 13.5 8.0 11.9 90 0.9 W 32 48 17 26 1017.4 1017.4 2.0
04/02:30pm 13.4 7.8 12.0 91 0.8 WNW 33 44 18 24 1017.4 1017.4 2.0
04/02:00pm 13.3 7.7 12.0 92 0.7 W 33 44 18 24 1017.4 1017.4 2.0
04/01:30pm 13.2 7.6 12.1 93 0.6 WNW 33 46 18 25 1017.5 1017.5 1.8
04/01:00pm 13.3 7.8 11.9 91 0.7 WNW 32 41 17 22 1017.6 1017.6 1.4
04/12:30pm 13.5 7.8 11.9 90 0.9 W 33 43 18 23 1017.9 1017.9 1.4
04/12:00pm 13.5 8.1 12.1 91 0.8 W 32 44 17 24 1018.1 1018.1 1.4
04/11:30am 13.8 8.9 12.7 93 0.6 W 30 41 16 22 1018.4 1018.4 1.4
04/11:17am 13.6 9.1 12.5 93 0.6 W 28 41 15 22 1018.5 1018.5 1.4
04/11:12am 13.4 8.8 12.3 93 0.6 W 28 41 15 22 1018.5 1018.5 1.4
04/11:04am 12.9 7.3 11.6 92 0.7 W 32 43 17 23 1018.6 1018.6 1.4
04/11:01am 12.9 7.7 11.6 92 0.7 W 30 43 16 23 1018.7 1018.7 1.2
04/11:00am 12.9 7.7 11.6 92 0.7 W 30 43 16 23 1018.7 1018.7 1.0
04/10:30am 13.3 7.8 11.9 91 0.8 W 32 44 17 24 1018.7 1018.7 0.2
04/10:08am 13.2 8.4 11.6 90 0.9 W 28 39 15 21 1018.6 1018.6 0.2
04/10:00am 13.2 8.4 11.6 90 0.9 W 28 39 15 21 1018.6 1018.6 0.2
04/09:30am 13.0 9.2 11.1 88 1.0 W 22 32 12 17 1018.5 1018.5 0.0
04/09:00am 13.0 9.1 10.9 87 1.1 W 22 30 12 16 1018.4 1018.4 3.8
04/08:30am 12.9 8.6 10.8 87 1.1 W 24 32 13 17 1018.5 1018.5 3.8
04/08:00am 12.5 8.0 10.2 86 1.2 W 24 35 13 19 1018.1 1018.1 3.8
04/07:50am 12.8 7.8 11.0 89 0.9 W 28 37 15 20 1018.1 1018.1 3.8
04/07:39am 12.9 8.7 11.1 89 0.9 WSW 24 32 13 17 1018.1 1018.1 3.8
04/07:30am 12.9 7.9 11.1 89 0.9 W 28 39 15 21 1018.1 1018.1 3.8
04/07:00am 12.8 7.8 11.0 89 0.9 W 28 37 15 20 1017.9 1017.9 3.8
04/06:50am 12.7 7.4 11.1 90 0.8 W 30 39 16 21 1017.9 1017.9 3.8
04/06:30am 12.8 8.4 11.7 93 0.6 W 26 33 14 18 1017.7 1017.7 3.8
04/06:00am 12.6 7.9 12.0 96 0.3 W 28 39 15 21 1017.4 1017.4 3.8
04/05:30am 12.2 4.0 11.6 96 0.3 NW 46 56 25 30 1017.2 1017.2 3.8
04/05:11am 12.1 4.2 11.6 97 0.3 NW 44 57 24 31 1017.1 1017.1 3.8
04/05:00am 11.9 4.2 11.4 97 0.3 NW 43 56 23 30 1017.1 1017.1 3.8
04/04:30am 11.9 4.5 11.3 96 0.3 NW 41 54 22 29 1017.2 1017.2 1.8
04/04:00am 12.1 4.2 11.3 95 0.4 NW 44 56 24 30 1017.5 1017.5 1.6
04/03:58am 12.1 4.3 11.3 95 0.4 NW 43 54 23 29 1017.5 1017.5 1.6
04/03:45am 12.0 4.7 11.4 96 0.3 NW 41 56 22 30 1017.6 1017.6 1.4
04/03:30am 12.0 4.2 11.2 95 0.4 NW 43 54 23 29 1017.7 1017.7 1.4
04/03:09am 12.2 5.2 11.3 94 0.5 WNW 39 50 21 27 1018.0 1018.0 1.4
04/03:00am 12.1 4.3 11.2 94 0.5 WNW 43 52 23 28 1018.1 1018.1 1.4
04/02:30am 11.9 5.3 11.3 96 0.3 NW 37 48 20 26 1018.4 1018.4 1.4
04/02:13am 11.6 3.8 11.0 96 0.3 WNW 43 54 23 29 1018.7 1018.7 1.4
04/02:00am 11.4 3.5 10.9 97 0.3 WNW 43 56 23 30 1018.8 1018.8 1.4
04/01:30am 10.9 3.7 10.4 97 0.3 NW 39 50 21 27 1019.0 1019.0 0.8
04/01:00am 10.8 3.9 10.2 96 0.3 NW 37 50 20 27 1019.2 1019.2 0.6
04/12:30am 10.6 2.4 9.7 94 0.5 NW 43 56 23 30 1019.7 1019.7 0.4
04/12:00am 11.0 3.6 9.8 92 0.6 NW 39 52 21 28 1020.1 1020.1 0.0
 
Date/Time
EST
Temp
°C
App
Temp
°C
Dew
Point
Rel
Hum
%
Delta-T
°C
Wind Press
QNH
hPa
Press
MSL
hPa
Rain
since 9 am
mm
Dir
 
Spd
km/h
Gust
km/h
Spd
kts
Gust
kts
03/11:53pm 11.1 3.6 9.5 90 0.8 NW 39 48 21 26 1020.1 1020.1 0.0
03/11:38pm 11.1 4.0 9.5 90 0.8 NW 37 48 20 26 1020.3 1020.3 0.0
03/11:30pm 11.0 3.9 9.6 91 0.7 NW 37 50 20 27 1020.3 1020.3 0.0
03/11:11pm 10.9 4.1 9.3 90 0.8 NW 35 50 19 27 1020.4 1020.4 0.0
03/11:01pm 11.1 3.5 9.2 88 0.9 WNW 39 50 21 27 1020.6 1020.6 0.0
03/11:00pm 11.1 3.5 9.2 88 0.9 WNW 39 52 21 28 1020.6 1020.6 0.0
03/10:30pm 11.8 4.1 8.8 82 1.5 WNW 39 48 21 26 1020.7 1020.7 0.0
03/10:00pm 11.3 3.9 8.3 82 1.5 NW 37 50 20 27 1020.9 1020.9 0.0
03/09:30pm 11.2 3.0 8.1 81 1.5 NW 41 50 22 27 1021.3 1021.3 0.0
03/09:00pm 11.2 4.6 7.9 80 1.6 WNW 32 41 17 22 1021.5 1021.5 0.0
03/08:30pm 11.1 3.4 7.2 77 1.9 WNW 37 50 20 27 1021.7 1021.7 0.0
03/08:00pm 11.3 5.1 6.2 71 2.4 WNW 28 43 15 23 1021.7 1021.7 0.0
03/07:30pm 11.0 4.3 5.7 70 2.5 WNW 30 43 16 23 1022.0 1022.0 0.0
03/07:00pm 11.1 4.6 6.5 73 2.2 WNW 30 35 16 19 1022.3 1022.3 0.0
03/06:30pm 10.9 4.0 4.4 64 2.9 WNW 30 39 16 21 1022.5 1022.5 0.0
03/06:13pm 10.9 3.8 3.7 61 3.2 WNW 30 48 16 26 1022.5 1022.5 0.0
03/06:00pm 10.9 3.4 3.5 60 3.2 WNW 32 44 17 24 1022.6 1022.6 0.0
03/05:30pm 10.5 4.1 5.3 70 2.4 W 28 37 15 20 1022.7 1022.7 0.0
03/05:00pm 10.5 2.6 4.6 67 2.6 WNW 35 46 19 25 1022.7 1022.7 0.0
03/04:30pm 10.2 5.1 5.8 74 2.0 W 22 32 12 17 1022.9 1022.9 0.0
03/04:05pm 10.1 3.0 5.5 73 2.1 WNW 32 50 17 27 1023.1 1023.1 0.0
03/04:00pm 10.1 2.4 5.3 72 2.2 WNW 35 50 19 27 1023.2 1023.3 0.0
03/03:55pm 10.1 3.8 5.5 73 2.1 WNW 28 46 15 25 1023.2 1023.3 0.0
03/03:30pm 10.3 5.7 6.3 76 1.9 WNW 20 26 11 14 1023.3 1023.4 0.0
03/03:00pm 9.6 3.9 6.5 81 1.4 W 26 39 14 21 1023.6 1023.7 0.0
03/02:30pm 10.2 3.8 5.2 71 2.3 WNW 28 39 15 21 1023.8 1023.9 0.0
03/02:00pm 9.8 3.6 6.3 79 1.6 NW 28 35 15 19 1024.4 1024.5 0.0
03/01:41pm 9.8 3.4 5.4 74 2.0 WNW 28 48 15 26 1024.6 1024.7 0.0
03/01:30pm 10.7 3.8 4.4 65 2.8 WNW 30 37 16 20 1024.6 1024.7 0.0
03/01:00pm 10.6 4.2 3.2 60 3.2 WNW 26 33 14 18 1024.9 1025.0 0.0

Other Formats:

Comma delimited format used in spreadsheet applications
http://www.bom.gov.au/fwo/IDT60801/IDT60801.94850.axf

JavaScript Object Notation format (JSON) in row-major order
http://www.bom.gov.au/fwo/IDT60801/IDT60801.94850.json